(°C)
26°
26°
26°
26°
26°
25°
24°
(°C)
23°
23°
23°
22°
21°
20°
19°
W
W
W
W
WNW
WNW
WNW
(km/h)
18-35
20-39
22-41
21-41
20-39
19-36
16-32
(mm)
0
0
0
0
0
0
0
(%)
3
4
5
5
4
4
7

Wysokość słońca

/ 69.1°
sun-icon
UV 6
05:44
20:12
Ubywający Księżyc garbaty (199°)
22:30
06:42

METAR dla Wilmington Manor (KILG)

Czas Warunki Temperatura/
Punkt rosy
Wiatr Widzialność Pogoda Chmury Ciśn. atm. Zmień Surowy
VFR 25°C / 8.9°C 260º 12kt Gust 24kt. Wind Shift present. >10km - Clear 1010 - KILG 171551Z 26012G24KT 10SM CLR 25/09 A2983 RMK AO2 WSHFT 1514 SLP100 T02500089
VFR 24.4°C / 8.9°C 260º 14kt Gust 21kt. Wind Shift present. >10km - Clear - KILG 171534Z 26014G21KT 10SM CLR 24/09 A2983 RMK AO2 WSHFT 1514 T02440089
VFR 23.3°C / 10.6°C 240º 10kt Gust 15kt >10km - Clear 1010 - KILG 171451Z AUTO 24010G15KT 10SM CLR 23/11 A2984 RMK AO2 SLP106 T02330106 58001
VFR 21.1°C / 10°C 240º 7kt >10km - Clear 1010 - KILG 171351Z AUTO 24007KT 10SM CLR 21/10 A2985 RMK AO2 SLP108 T02110100
VFR 19.4°C / 10°C 270º 9kt >10km - Clear 1010 - KILG 171251Z AUTO 27009KT 10SM CLR 19/10 A2985 RMK AO2 SLP109 T01940100
VFR 17.2°C / 10.6°C 250º 7kt >10km - Clear 1010 - KILG 171151Z AUTO 25007KT 10SM CLR 17/11 A2985 RMK AO2 SLP107 70001 T01720106 10172 20128 52014
VFR 14.4°C / 10.6°C 240º 5kt >10km - Clear 1010 - KILG 171051Z AUTO 24005KT 10SM CLR 14/11 A2983 RMK AO2 SLP102 T01440106
VFR 13.3°C / 9.4°C 250º 5kt >10km - Clear 1009 - KILG 170951Z AUTO 25005KT 10SM CLR 13/09 A2982 RMK AO2 SLP098 T01330094
VFR 12.8°C / 8.9°C 240º 7kt >10km - Clear 1009 - KILG 170851Z AUTO 24007KT 10SM CLR 13/09 A2981 RMK AO2 SLP093 T01280089 53005
VFR 13.3°C / 8.9°C 240º 5kt >10km - Clear 1009 - KILG 170751Z AUTO 24005KT 10SM CLR 13/09 A2980 RMK AO2 SLP091 T01330089
VFR 13.3°C / 9.4°C 240º 6kt >10km - Clear 1008 - KILG 170651Z AUTO 24006KT 10SM CLR 13/09 A2979 RMK AO2 SLP088 T01330094
VFR 15°C / 8.9°C 220º 3kt >10km - Clear 1008 - KILG 170551Z AUTO 22003KT 10SM CLR 15/09 A2979 RMK AO2 SLP089 T01500089 10217 20139 50006
VFR 13.9°C / 8.9°C 290º 7kt >10km - Clear 1009 - KILG 170451Z AUTO 29007KT 10SM CLR 14/09 A2980 RMK AO2 SLP092 T01390089 402560139
VFR 15.6°C / 8.9°C 310º 7kt >10km - Clear 1008 - KILG 170351Z AUTO 31007KT 10SM CLR 16/09 A2980 RMK AO2 SLP089 T01560089
VFR 18.3°C / 8.9°C 320º 12kt >10km - Clear 1008 - KILG 170251Z AUTO 32012KT 10SM CLR 18/09 A2978 RMK AO2 SLP082 T01830089 51042
VFR 19.4°C / 10°C 300º 10kt >10km - Clear 1007 - KILG 170151Z 30010KT 10SM CLR 19/10 A2975 RMK AO2 SLP073 T01940100
VFR 21.1°C / 12.8°C 290º 12kt >10km - Few Clouds 5000ft 1005 - KILG 170051Z 29012KT 10SM FEW050 21/13 A2969 RMK AO2 SLP053 T02110128
VFR 21.7°C / 13.3°C 260º 8kt >10km - Clear 1004 - KILG 162351Z 26008KT 10SM CLR 22/13 A2965 RMK AO2 SLP041 60000 T02170133 10256 20206 53017
VFR 22.8°C / 13.3°C 270º 11kt >10km - Clear - KILG 162318Z 27011KT 10SM CLR 23/13 A2964 RMK AO2 LTG DSNT SE AND S T02280133
VFR 23.3°C / 13.3°C 260º 11kt Gust 21kt >10km in the Vicinity Thunderstorm Vertical Visibility of 0ft. - KILG 162303Z 26011G21KT 10SM VCTS FEW080 23/13 A2963 RMK AO2 LTG DSNT SE AND S T02330133
VFR 22.8°C / 16.1°C 260º 7kt. Wind Shift present. >10km 0.13mm precipitation Few Clouds 4200ft
Few Clouds 6000ft
Scattered Clouds 8000ft
1003 - KILG 162251Z 26007KT 10SM FEW042 FEW060 SCT080 23/16 A2963 RMK AO2 WSHFT 2216 RAB01E10B28E42 TSB16E31 SLP032 P0000 T02280161
VFR 21.7°C / 16.1°C 320º 12kt Gust 23kt. Wind Shift present. >10km Light Rain 0.13mm precipitation Few Clouds 4200ft
Broken Clouds 6000ft
- KILG 162231Z 32012G23KT 8SM -RA FEW042 BKN060 22/16 A2962 RMK AO2 WSHFT 2216 LTG DSNT NE RAB01E10B28 TSB16E31 P0000 T02170161
VFR 24.4°C / 15.6°C 220º 12kt >10km Thunderstorm 0.13mm precipitation Few Clouds 6000ft - KILG 162222Z 22012KT 10SM TS FEW060 24/16 A2960 RMK AO2 LTG DSNT N RAB01E10 TSB16 P0000 T02440156
VFR 24.4°C / 15.6°C 230º 9kt >10km - Clear 1002 - KILG 162151Z 23009KT 10SM CLR 24/16 A2960 RMK AO2 LTG DSNT N AND NW SLP023 T02440156

VFR

25°C / 8.9°C

[Więcej]
Wiatr 260º 12kt Gust 24kt. Wind Shift present.
Widzialność >10km
Pogoda -
Chmury Clear
Ciśn. atm. 1010
Zmień -
Surowy KILG 171551Z 26012G24KT 10SM CLR 25/09 A2983 RMK AO2 WSHFT 1514 SLP100 T02500089

VFR

24.4°C / 8.9°C

[Więcej]
Wiatr 260º 14kt Gust 21kt. Wind Shift present.
Widzialność >10km
Pogoda -
Chmury Clear
Ciśn. atm.
Zmień -
Surowy KILG 171534Z 26014G21KT 10SM CLR 24/09 A2983 RMK AO2 WSHFT 1514 T02440089

VFR

23.3°C / 10.6°C

[Więcej]
Wiatr 240º 10kt Gust 15kt
Widzialność >10km
Pogoda -
Chmury Clear
Ciśn. atm. 1010
Zmień -
Surowy KILG 171451Z AUTO 24010G15KT 10SM CLR 23/11 A2984 RMK AO2 SLP106 T02330106 58001

VFR

21.1°C / 10°C

[Więcej]
Wiatr 240º 7kt
Widzialność >10km
Pogoda -
Chmury Clear
Ciśn. atm. 1010
Zmień -
Surowy KILG 171351Z AUTO 24007KT 10SM CLR 21/10 A2985 RMK AO2 SLP108 T02110100

VFR

19.4°C / 10°C

[Więcej]
Wiatr 270º 9kt
Widzialność >10km
Pogoda -
Chmury Clear
Ciśn. atm. 1010
Zmień -
Surowy KILG 171251Z AUTO 27009KT 10SM CLR 19/10 A2985 RMK AO2 SLP109 T01940100

VFR

17.2°C / 10.6°C

[Więcej]
Wiatr 250º 7kt
Widzialność >10km
Pogoda -
Chmury Clear
Ciśn. atm. 1010
Zmień -
Surowy KILG 171151Z AUTO 25007KT 10SM CLR 17/11 A2985 RMK AO2 SLP107 70001 T01720106 10172 20128 52014

VFR

14.4°C / 10.6°C

[Więcej]
Wiatr 240º 5kt
Widzialność >10km
Pogoda -
Chmury Clear
Ciśn. atm. 1010
Zmień -
Surowy KILG 171051Z AUTO 24005KT 10SM CLR 14/11 A2983 RMK AO2 SLP102 T01440106

VFR

13.3°C / 9.4°C

[Więcej]
Wiatr 250º 5kt
Widzialność >10km
Pogoda -
Chmury Clear
Ciśn. atm. 1009
Zmień -
Surowy KILG 170951Z AUTO 25005KT 10SM CLR 13/09 A2982 RMK AO2 SLP098 T01330094

VFR

12.8°C / 8.9°C

[Więcej]
Wiatr 240º 7kt
Widzialność >10km
Pogoda -
Chmury Clear
Ciśn. atm. 1009
Zmień -
Surowy KILG 170851Z AUTO 24007KT 10SM CLR 13/09 A2981 RMK AO2 SLP093 T01280089 53005

VFR

13.3°C / 8.9°C

[Więcej]
Wiatr 240º 5kt
Widzialność >10km
Pogoda -
Chmury Clear
Ciśn. atm. 1009
Zmień -
Surowy KILG 170751Z AUTO 24005KT 10SM CLR 13/09 A2980 RMK AO2 SLP091 T01330089

VFR

13.3°C / 9.4°C

[Więcej]
Wiatr 240º 6kt
Widzialność >10km
Pogoda -
Chmury Clear
Ciśn. atm. 1008
Zmień -
Surowy KILG 170651Z AUTO 24006KT 10SM CLR 13/09 A2979 RMK AO2 SLP088 T01330094

VFR

15°C / 8.9°C

[Więcej]
Wiatr 220º 3kt
Widzialność >10km
Pogoda -
Chmury Clear
Ciśn. atm. 1008
Zmień -
Surowy KILG 170551Z AUTO 22003KT 10SM CLR 15/09 A2979 RMK AO2 SLP089 T01500089 10217 20139 50006

VFR

13.9°C / 8.9°C

[Więcej]
Wiatr 290º 7kt
Widzialność >10km
Pogoda -
Chmury Clear
Ciśn. atm. 1009
Zmień -
Surowy KILG 170451Z AUTO 29007KT 10SM CLR 14/09 A2980 RMK AO2 SLP092 T01390089 402560139

VFR

15.6°C / 8.9°C

[Więcej]
Wiatr 310º 7kt
Widzialność >10km
Pogoda -
Chmury Clear
Ciśn. atm. 1008
Zmień -
Surowy KILG 170351Z AUTO 31007KT 10SM CLR 16/09 A2980 RMK AO2 SLP089 T01560089

VFR

18.3°C / 8.9°C

[Więcej]
Wiatr 320º 12kt
Widzialność >10km
Pogoda -
Chmury Clear
Ciśn. atm. 1008
Zmień -
Surowy KILG 170251Z AUTO 32012KT 10SM CLR 18/09 A2978 RMK AO2 SLP082 T01830089 51042

VFR

19.4°C / 10°C

[Więcej]
Wiatr 300º 10kt
Widzialność >10km
Pogoda -
Chmury Clear
Ciśn. atm. 1007
Zmień -
Surowy KILG 170151Z 30010KT 10SM CLR 19/10 A2975 RMK AO2 SLP073 T01940100

VFR

21.1°C / 12.8°C

[Więcej]
Wiatr 290º 12kt
Widzialność >10km
Pogoda -
Chmury Few Clouds 5000ft
Ciśn. atm. 1005
Zmień -
Surowy KILG 170051Z 29012KT 10SM FEW050 21/13 A2969 RMK AO2 SLP053 T02110128

VFR

21.7°C / 13.3°C

[Więcej]
Wiatr 260º 8kt
Widzialność >10km
Pogoda -
Chmury Clear
Ciśn. atm. 1004
Zmień -
Surowy KILG 162351Z 26008KT 10SM CLR 22/13 A2965 RMK AO2 SLP041 60000 T02170133 10256 20206 53017

VFR

22.8°C / 13.3°C

[Więcej]
Wiatr 270º 11kt
Widzialność >10km
Pogoda -
Chmury Clear
Ciśn. atm.
Zmień -
Surowy KILG 162318Z 27011KT 10SM CLR 23/13 A2964 RMK AO2 LTG DSNT SE AND S T02280133

VFR

23.3°C / 13.3°C

[Więcej]
Wiatr 260º 11kt Gust 21kt
Widzialność >10km
Pogoda in the Vicinity Thunderstorm
Chmury Vertical Visibility of 0ft.
Ciśn. atm.
Zmień -
Surowy KILG 162303Z 26011G21KT 10SM VCTS FEW080 23/13 A2963 RMK AO2 LTG DSNT SE AND S T02330133

VFR

22.8°C / 16.1°C

[Więcej]
Wiatr 260º 7kt. Wind Shift present.
Widzialność >10km
Pogoda 0.13mm precipitation
Chmury Few Clouds 4200ft
Few Clouds 6000ft
Scattered Clouds 8000ft
Ciśn. atm. 1003
Zmień -
Surowy KILG 162251Z 26007KT 10SM FEW042 FEW060 SCT080 23/16 A2963 RMK AO2 WSHFT 2216 RAB01E10B28E42 TSB16E31 SLP032 P0000 T02280161

VFR

21.7°C / 16.1°C

[Więcej]
Wiatr 320º 12kt Gust 23kt. Wind Shift present.
Widzialność >10km
Pogoda Light Rain 0.13mm precipitation
Chmury Few Clouds 4200ft
Broken Clouds 6000ft
Ciśn. atm.
Zmień -
Surowy KILG 162231Z 32012G23KT 8SM -RA FEW042 BKN060 22/16 A2962 RMK AO2 WSHFT 2216 LTG DSNT NE RAB01E10B28 TSB16E31 P0000 T02170161

VFR

24.4°C / 15.6°C

[Więcej]
Wiatr 220º 12kt
Widzialność >10km
Pogoda Thunderstorm 0.13mm precipitation
Chmury Few Clouds 6000ft
Ciśn. atm.
Zmień -
Surowy KILG 162222Z 22012KT 10SM TS FEW060 24/16 A2960 RMK AO2 LTG DSNT N RAB01E10 TSB16 P0000 T02440156

VFR

24.4°C / 15.6°C

[Więcej]
Wiatr 230º 9kt
Widzialność >10km
Pogoda -
Chmury Clear
Ciśn. atm. 1002
Zmień -
Surowy KILG 162151Z 23009KT 10SM CLR 24/16 A2960 RMK AO2 LTG DSNT N AND NW SLP023 T02440156

TAF dla Wilmington Manor (KILG)

From till


From till Wind 270º 8kt. Visibility 10km or more. Sky Clear.
From till Wind 280º 10kt. Gust 22kt. Visibility 10km or more. Few Clouds 7000ft.
From till Wind 290º 14kt. Gust 26kt. Visibility 10km or more. Scattered Clouds 7000ft.
From till Wind 320º 8kt. Visibility 10km or more. Sky Clear.

Surowy: KILG 171120Z 1712/1812 27008KT P6SM SKC FM171500 28010G22KT P6SM FEW070 FM171700 29014G26KT P6SM SCT070 FM180100 32008KT P6SM SKC

Radar i prognoza opadów na teraz dla Wilmington Manor

Mżawka
Lekkie
Umiarkowane
Intensywne
Bardzo Intensywne
Grad

Wskaźnik lokalizacji jest umieszczony na Wilmington Manor. Animacja przedstawia radar opadów dla ostatniej godziny, jak również 1h prognozę pogody. Mżawka i lekkie opady mogą być niewidoczne na radarze. Intensywność opadów jest oznaczona kolorami od jasnoniebieskiego do ciemnofioletowego.

Aktualne zdjęcia satelitarne dla Wilmington Manor, USA

Wskaźnik lokalizacji znajduje się na Wilmington Manor. [Więcej]

Obraz satelitarny w czasie rzeczywistym łączy światło widzialne w ciągu dnia z promieniowaniem podczerwonym w nocy. W nocy obraz nie jest ciemny, ponieważ promieniowanie podczerwone może wykrywać różnice temperatur. Niestety niskie chmury i mgłę trudno odróżnić od temperatury gruntu, przez co mogą być prawie niewidoczne w nocy. Zdjęcia satelitarne Meteosat dla Europy są aktualizowane w czasie rzeczywistym co 5 minut. Obrazy GOES-16/GOES-17 (Ameryka Północna i Południowa) oraz Himawari (Azja) są aktualizowane co 10 minut.

Powrót do góry